sensor_id;sensor_type;location;lat;lon;timestamp;temperature;humidity
20102;DHT22;10210;52.284;9.892;2023-08-20T00:00:29;26.90;99.90
20102;DHT22;10210;52.284;9.892;2023-08-20T00:03:01;26.80;99.90
20102;DHT22;10210;52.284;9.892;2023-08-20T00:05:30;26.80;99.90
20102;DHT22;10210;52.284;9.892;2023-08-20T00:07:56;26.80;99.90
20102;DHT22;10210;52.284;9.892;2023-08-20T00:10:22;26.80;99.90
20102;DHT22;10210;52.284;9.892;2023-08-20T00:12:48;26.80;99.90
20102;DHT22;10210;52.284;9.892;2023-08-20T00:15:13;26.80;99.90
20102;DHT22;10210;52.284;9.892;2023-08-20T00:17:40;26.80;99.90
20102;DHT22;10210;52.284;9.892;2023-08-20T00:20:07;26.80;99.90
20102;DHT22;10210;52.284;9.892;2023-08-20T00:22:42;26.80;99.90
20102;DHT22;10210;52.284;9.892;2023-08-20T00:25:11;26.80;99.90
20102;DHT22;10210;52.284;9.892;2023-08-20T00:27:41;26.80;99.90
20102;DHT22;10210;52.284;9.892;2023-08-20T00:30:07;26.80;99.90
20102;DHT22;10210;52.284;9.892;2023-08-20T00:32:35;26.80;99.90
20102;DHT22;10210;52.284;9.892;2023-08-20T00:35:01;26.70;99.90
20102;DHT22;10210;52.284;9.892;2023-08-20T00:37:28;26.70;99.90
20102;DHT22;10210;52.284;9.892;2023-08-20T00:39:54;26.70;99.90
20102;DHT22;10210;52.284;9.892;2023-08-20T00:42:20;26.70;99.90
20102;DHT22;10210;52.284;9.892;2023-08-20T00:44:46;26.70;99.90
20102;DHT22;10210;52.284;9.892;2023-08-20T00:47:13;26.70;99.90
20102;DHT22;10210;52.284;9.892;2023-08-20T00:49:40;26.70;99.90
20102;DHT22;10210;52.284;9.892;2023-08-20T00:52:11;26.60;99.90
20102;DHT22;10210;52.284;9.892;2023-08-20T00:54:39;26.60;99.90
20102;DHT22;10210;52.284;9.892;2023-08-20T00:57:06;26.60;99.90
20102;DHT22;10210;52.284;9.892;2023-08-20T00:59:34;26.60;99.90
20102;DHT22;10210;52.284;9.892;2023-08-20T01:02:00;26.60;99.90
20102;DHT22;10210;52.284;9.892;2023-08-20T01:04:27;26.50;99.90
20102;DHT22;10210;52.284;9.892;2023-08-20T01:13:20;26.50;99.90
20102;DHT22;10210;52.284;9.892;2023-08-20T01:15:46;26.50;99.90
20102;DHT22;10210;52.284;9.892;2023-08-20T01:18:12;26.40;99.90
20102;DHT22;10210;52.284;9.892;2023-08-20T01:20:44;26.40;99.90
20102;DHT22;10210;52.284;9.892;2023-08-20T01:23:31;26.30;99.90
20102;DHT22;10210;52.284;9.892;2023-08-20T01:29:06;26.30;99.90
20102;DHT22;10210;52.284;9.892;2023-08-20T01:31:33;26.30;99.90
20102;DHT22;10210;52.284;9.892;2023-08-20T01:34:01;26.20;99.90
20102;DHT22;10210;52.284;9.892;2023-08-20T01:36:28;26.30;99.90
20102;DHT22;10210;52.284;9.892;2023-08-20T01:38:53;26.20;99.90
20102;DHT22;10210;52.284;9.892;2023-08-20T01:41:19;26.20;99.90
20102;DHT22;10210;52.284;9.892;2023-08-20T01:43:45;26.20;99.90
20102;DHT22;10210;52.284;9.892;2023-08-20T01:46:10;26.20;99.90
20102;DHT22;10210;52.284;9.892;2023-08-20T01:48:38;26.20;99.90
20102;DHT22;10210;52.284;9.892;2023-08-20T01:51:03;26.10;99.90
20102;DHT22;10210;52.284;9.892;2023-08-20T01:53:29;26.10;99.90
20102;DHT22;10210;52.284;9.892;2023-08-20T01:55:55;26.10;99.90
20102;DHT22;10210;52.284;9.892;2023-08-20T01:58:21;26.10;99.90
20102;DHT22;10210;52.284;9.892;2023-08-20T02:00:46;26.00;99.90
20102;DHT22;10210;52.284;9.892;2023-08-20T02:03:13;26.00;99.90
20102;DHT22;10210;52.284;9.892;2023-08-20T02:05:38;26.00;99.90
20102;DHT22;10210;52.284;9.892;2023-08-20T02:08:04;26.00;99.90
20102;DHT22;10210;52.284;9.892;2023-08-20T02:10:30;25.90;99.90
20102;DHT22;10210;52.284;9.892;2023-08-20T02:12:56;25.90;99.90
20102;DHT22;10210;52.284;9.892;2023-08-20T02:15:21;25.90;99.90
20102;DHT22;10210;52.284;9.892;2023-08-20T02:17:47;25.90;99.90
20102;DHT22;10210;52.284;9.892;2023-08-20T02:20:13;25.90;99.90
20102;DHT22;10210;52.284;9.892;2023-08-20T02:22:38;25.80;99.90
20102;DHT22;10210;52.284;9.892;2023-08-20T02:25:04;25.80;99.90
20102;DHT22;10210;52.284;9.892;2023-08-20T02:27:30;25.80;99.90
20102;DHT22;10210;52.284;9.892;2023-08-20T02:29:56;25.80;99.90
20102;DHT22;10210;52.284;9.892;2023-08-20T02:32:21;25.80;99.90
20102;DHT22;10210;52.284;9.892;2023-08-20T02:34:51;25.80;99.90
20102;DHT22;10210;52.284;9.892;2023-08-20T02:37:17;25.80;99.90
20102;DHT22;10210;52.284;9.892;2023-08-20T02:39:43;25.80;99.90
20102;DHT22;10210;52.284;9.892;2023-08-20T02:42:08;25.80;99.90
20102;DHT22;10210;52.284;9.892;2023-08-20T02:44:34;25.70;99.90
20102;DHT22;10210;52.284;9.892;2023-08-20T02:46:59;25.70;99.90
20102;DHT22;10210;52.284;9.892;2023-08-20T02:49:25;25.70;99.90
20102;DHT22;10210;52.284;9.892;2023-08-20T02:51:51;25.70;99.90
20102;DHT22;10210;52.284;9.892;2023-08-20T02:54:16;25.70;99.90
20102;DHT22;10210;52.284;9.892;2023-08-20T02:56:42;25.70;99.90
20102;DHT22;10210;52.284;9.892;2023-08-20T02:59:08;25.70;99.90
20102;DHT22;10210;52.284;9.892;2023-08-20T03:01:33;25.60;99.90
20102;DHT22;10210;52.284;9.892;2023-08-20T03:03:59;25.60;99.90
20102;DHT22;10210;52.284;9.892;2023-08-20T03:06:25;25.60;99.90
20102;DHT22;10210;52.284;9.892;2023-08-20T03:08:50;25.60;99.90
20102;DHT22;10210;52.284;9.892;2023-08-20T03:11:16;25.60;99.90
20102;DHT22;10210;52.284;9.892;2023-08-20T03:13:41;25.60;99.90
20102;DHT22;10210;52.284;9.892;2023-08-20T03:16:07;25.60;99.90
20102;DHT22;10210;52.284;9.892;2023-08-20T03:18:33;25.60;99.90
20102;DHT22;10210;52.284;9.892;2023-08-20T03:20:59;25.60;99.90
20102;DHT22;10210;52.284;9.892;2023-08-20T03:23:25;25.50;99.90
20102;DHT22;10210;52.284;9.892;2023-08-20T03:25:50;25.50;99.90
20102;DHT22;10210;52.284;9.892;2023-08-20T03:28:18;25.50;99.90
20102;DHT22;10210;52.284;9.892;2023-08-20T03:30:44;25.40;99.90
20102;DHT22;10210;52.284;9.892;2023-08-20T03:33:10;25.40;99.90
20102;DHT22;10210;52.284;9.892;2023-08-20T03:35:35;25.40;99.90
20102;DHT22;10210;52.284;9.892;2023-08-20T03:38:01;25.40;99.90
20102;DHT22;10210;52.284;9.892;2023-08-20T03:40:27;25.40;99.90
20102;DHT22;10210;52.284;9.892;2023-08-20T03:42:53;25.40;99.90
20102;DHT22;10210;52.284;9.892;2023-08-20T03:45:19;25.30;99.90
20102;DHT22;10210;52.284;9.892;2023-08-20T03:47:44;25.40;99.90
20102;DHT22;10210;52.284;9.892;2023-08-20T03:50:12;25.30;99.90
20102;DHT22;10210;52.284;9.892;2023-08-20T03:52:38;25.30;99.90
20102;DHT22;10210;52.284;9.892;2023-08-20T03:55:05;25.30;99.90
20102;DHT22;10210;52.284;9.892;2023-08-20T03:57:31;25.30;99.90
20102;DHT22;10210;52.284;9.892;2023-08-20T03:59:57;25.30;99.90
20102;DHT22;10210;52.284;9.892;2023-08-20T04:02:23;25.30;99.90
20102;DHT22;10210;52.284;9.892;2023-08-20T04:04:49;25.30;99.90
20102;DHT22;10210;52.284;9.892;2023-08-20T04:07:14;25.30;99.90
20102;DHT22;10210;52.284;9.892;2023-08-20T04:09:40;25.30;99.90
20102;DHT22;10210;52.284;9.892;2023-08-20T04:12:08;25.30;99.90
20102;DHT22;10210;52.284;9.892;2023-08-20T04:14:33;25.30;99.90
20102;DHT22;10210;52.284;9.892;2023-08-20T04:16:59;25.30;99.90
20102;DHT22;10210;52.284;9.892;2023-08-20T04:19:25;25.30;99.90
20102;DHT22;10210;52.284;9.892;2023-08-20T04:21:50;25.30;99.90
20102;DHT22;10210;52.284;9.892;2023-08-20T04:24:16;25.30;99.90
20102;DHT22;10210;52.284;9.892;2023-08-20T04:26:42;25.30;99.90
20102;DHT22;10210;52.284;9.892;2023-08-20T04:29:09;25.30;99.90
20102;DHT22;10210;52.284;9.892;2023-08-20T04:31:35;25.30;99.90
20102;DHT22;10210;52.284;9.892;2023-08-20T04:34:00;25.30;99.90
20102;DHT22;10210;52.284;9.892;2023-08-20T04:36:26;25.30;99.90
20102;DHT22;10210;52.284;9.892;2023-08-20T04:38:52;25.30;99.90
20102;DHT22;10210;52.284;9.892;2023-08-20T04:41:17;25.30;99.90
20102;DHT22;10210;52.284;9.892;2023-08-20T04:43:43;25.30;99.90
20102;DHT22;10210;52.284;9.892;2023-08-20T04:46:09;25.30;99.90
20102;DHT22;10210;52.284;9.892;2023-08-20T04:48:34;25.30;99.90
20102;DHT22;10210;52.284;9.892;2023-08-20T04:51:00;25.30;99.90
20102;DHT22;10210;52.284;9.892;2023-08-20T04:53:26;25.20;99.90
20102;DHT22;10210;52.284;9.892;2023-08-20T04:55:52;25.20;99.90
20102;DHT22;10210;52.284;9.892;2023-08-20T04:58:17;25.10;99.90
20102;DHT22;10210;52.284;9.892;2023-08-20T05:00:43;25.10;99.90
20102;DHT22;10210;52.284;9.892;2023-08-20T05:03:09;25.10;99.90
20102;DHT22;10210;52.284;9.892;2023-08-20T05:05:34;25.00;99.90
20102;DHT22;10210;52.284;9.892;2023-08-20T05:08:00;25.00;99.90
20102;DHT22;10210;52.284;9.892;2023-08-20T05:10:26;25.00;99.90
20102;DHT22;10210;52.284;9.892;2023-08-20T05:12:51;25.00;99.90
20102;DHT22;10210;52.284;9.892;2023-08-20T05:15:17;25.00;99.90
20102;DHT22;10210;52.284;9.892;2023-08-20T05:17:43;25.00;99.90
20102;DHT22;10210;52.284;9.892;2023-08-20T05:20:09;25.00;99.90
20102;DHT22;10210;52.284;9.892;2023-08-20T05:22:35;25.00;99.90
20102;DHT22;10210;52.284;9.892;2023-08-20T05:25:01;25.00;99.90
20102;DHT22;10210;52.284;9.892;2023-08-20T05:27:27;25.00;99.90
20102;DHT22;10210;52.284;9.892;2023-08-20T05:29:53;25.10;99.90
20102;DHT22;10210;52.284;9.892;2023-08-20T05:32:19;25.10;99.90
20102;DHT22;10210;52.284;9.892;2023-08-20T05:34:44;25.10;99.90
20102;DHT22;10210;52.284;9.892;2023-08-20T05:37:10;25.10;99.90
20102;DHT22;10210;52.284;9.892;2023-08-20T05:39:37;25.10;99.90
20102;DHT22;10210;52.284;9.892;2023-08-20T05:42:07;25.10;99.90
20102;DHT22;10210;52.284;9.892;2023-08-20T05:44:32;25.10;99.90
20102;DHT22;10210;52.284;9.892;2023-08-20T05:46:58;25.20;99.90
20102;DHT22;10210;52.284;9.892;2023-08-20T05:49:24;25.10;99.90
20102;DHT22;10210;52.284;9.892;2023-08-20T05:51:49;25.20;99.90
20102;DHT22;10210;52.284;9.892;2023-08-20T05:54:15;25.10;99.90
20102;DHT22;10210;52.284;9.892;2023-08-20T05:56:41;25.10;99.90
20102;DHT22;10210;52.284;9.892;2023-08-20T05:59:06;25.10;99.90
20102;DHT22;10210;52.284;9.892;2023-08-20T06:01:32;25.10;99.90
20102;DHT22;10210;52.284;9.892;2023-08-20T06:03:58;25.10;99.90
20102;DHT22;10210;52.284;9.892;2023-08-20T06:06:26;25.10;99.90
20102;DHT22;10210;52.284;9.892;2023-08-20T06:08:52;25.10;99.90
20102;DHT22;10210;52.284;9.892;2023-08-20T06:11:19;25.10;99.90
20102;DHT22;10210;52.284;9.892;2023-08-20T06:13:45;25.10;99.90
20102;DHT22;10210;52.284;9.892;2023-08-20T06:16:10;25.10;99.90
20102;DHT22;10210;52.284;9.892;2023-08-20T06:18:36;25.10;99.90
20102;DHT22;10210;52.284;9.892;2023-08-20T06:21:03;25.10;99.90
20102;DHT22;10210;52.284;9.892;2023-08-20T06:23:29;25.00;99.90
20102;DHT22;10210;52.284;9.892;2023-08-20T06:25:54;25.00;99.90
20102;DHT22;10210;52.284;9.892;2023-08-20T06:28:21;25.00;99.90
20102;DHT22;10210;52.284;9.892;2023-08-20T06:30:47;25.00;99.90
20102;DHT22;10210;52.284;9.892;2023-08-20T06:33:12;25.00;99.90
20102;DHT22;10210;52.284;9.892;2023-08-20T06:35:39;25.00;99.90
20102;DHT22;10210;52.284;9.892;2023-08-20T06:38:06;25.00;99.90
20102;DHT22;10210;52.284;9.892;2023-08-20T06:40:32;25.10;99.90
20102;DHT22;10210;52.284;9.892;2023-08-20T06:42:58;25.10;99.90
20102;DHT22;10210;52.284;9.892;2023-08-20T06:45:24;25.10;99.90
20102;DHT22;10210;52.284;9.892;2023-08-20T06:47:50;25.10;99.90
20102;DHT22;10210;52.284;9.892;2023-08-20T06:50:15;25.10;99.90
20102;DHT22;10210;52.284;9.892;2023-08-20T06:52:42;25.20;99.90
20102;DHT22;10210;52.284;9.892;2023-08-20T06:55:08;25.20;99.90
20102;DHT22;10210;52.284;9.892;2023-08-20T06:57:34;25.20;99.90
20102;DHT22;10210;52.284;9.892;2023-08-20T06:59:59;25.20;99.90
20102;DHT22;10210;52.284;9.892;2023-08-20T07:02:25;25.30;99.90
20102;DHT22;10210;52.284;9.892;2023-08-20T07:04:51;25.30;99.90
20102;DHT22;10210;52.284;9.892;2023-08-20T07:07:17;25.40;99.90
20102;DHT22;10210;52.284;9.892;2023-08-20T07:09:42;25.40;99.90
20102;DHT22;10210;52.284;9.892;2023-08-20T07:12:08;25.50;99.90
20102;DHT22;10210;52.284;9.892;2023-08-20T07:14:34;25.50;99.90
20102;DHT22;10210;52.284;9.892;2023-08-20T07:16:59;25.60;99.90
20102;DHT22;10210;52.284;9.892;2023-08-20T07:19:28;25.60;99.90
20102;DHT22;10210;52.284;9.892;2023-08-20T07:21:54;25.70;99.90
20102;DHT22;10210;52.284;9.892;2023-08-20T07:24:20;25.70;99.90
20102;DHT22;10210;52.284;9.892;2023-08-20T07:26:53;25.90;99.90
20102;DHT22;10210;52.284;9.892;2023-08-20T07:29:25;26.00;99.90
20102;DHT22;10210;52.284;9.892;2023-08-20T07:31:51;26.10;99.90
20102;DHT22;10210;52.284;9.892;2023-08-20T07:34:16;26.40;99.90
20102;DHT22;10210;52.284;9.892;2023-08-20T07:36:42;26.80;99.90
20102;DHT22;10210;52.284;9.892;2023-08-20T07:39:08;27.30;99.90
20102;DHT22;10210;52.284;9.892;2023-08-20T07:41:34;27.70;99.90
20102;DHT22;10210;52.284;9.892;2023-08-20T07:43:59;28.30;99.90
20102;DHT22;10210;52.284;9.892;2023-08-20T07:46:25;28.80;99.90
20102;DHT22;10210;52.284;9.892;2023-08-20T07:48:51;29.30;99.90
20102;DHT22;10210;52.284;9.892;2023-08-20T07:51:17;29.90;99.90
20102;DHT22;10210;52.284;9.892;2023-08-20T07:53:42;30.30;99.90
20102;DHT22;10210;52.284;9.892;2023-08-20T07:56:08;30.70;99.90
20102;DHT22;10210;52.284;9.892;2023-08-20T07:58:34;31.10;99.90
20102;DHT22;10210;52.284;9.892;2023-08-20T08:01:00;31.40;99.90
20102;DHT22;10210;52.284;9.892;2023-08-20T08:03:26;31.60;99.90
20102;DHT22;10210;52.284;9.892;2023-08-20T08:05:52;31.90;99.90
20102;DHT22;10210;52.284;9.892;2023-08-20T08:08:21;32.20;99.90
20102;DHT22;10210;52.284;9.892;2023-08-20T08:10:48;32.40;99.90
20102;DHT22;10210;52.284;9.892;2023-08-20T08:13:17;32.60;99.90
20102;DHT22;10210;52.284;9.892;2023-08-20T08:15:46;32.80;99.90
20102;DHT22;10210;52.284;9.892;2023-08-20T08:18:12;33.00;99.90
20102;DHT22;10210;52.284;9.892;2023-08-20T08:20:38;33.20;99.90
20102;DHT22;10210;52.284;9.892;2023-08-20T08:23:03;33.40;99.90
20102;DHT22;10210;52.284;9.892;2023-08-20T08:25:29;33.50;99.90
20102;DHT22;10210;52.284;9.892;2023-08-20T08:27:55;33.60;99.90
20102;DHT22;10210;52.284;9.892;2023-08-20T08:30:21;33.80;99.90
20102;DHT22;10210;52.284;9.892;2023-08-20T08:32:47;33.90;99.90
20102;DHT22;10210;52.284;9.892;2023-08-20T08:35:12;34.00;99.90
20102;DHT22;10210;52.284;9.892;2023-08-20T08:37:38;34.10;99.90
20102;DHT22;10210;52.284;9.892;2023-08-20T08:40:04;34.30;99.90
20102;DHT22;10210;52.284;9.892;2023-08-20T08:42:33;34.30;99.90
20102;DHT22;10210;52.284;9.892;2023-08-20T08:45:03;34.50;99.90
20102;DHT22;10210;52.284;9.892;2023-08-20T08:47:29;34.50;99.90
20102;DHT22;10210;52.284;9.892;2023-08-20T08:49:56;34.60;99.90
20102;DHT22;10210;52.284;9.892;2023-08-20T08:52:26;34.70;99.90
20102;DHT22;10210;52.284;9.892;2023-08-20T08:54:52;34.70;99.90
20102;DHT22;10210;52.284;9.892;2023-08-20T08:57:18;34.80;99.90
20102;DHT22;10210;52.284;9.892;2023-08-20T08:59:44;34.80;99.90
20102;DHT22;10210;52.284;9.892;2023-08-20T09:02:12;34.90;99.90
20102;DHT22;10210;52.284;9.892;2023-08-20T09:04:40;34.90;99.90
20102;DHT22;10210;52.284;9.892;2023-08-20T09:07:14;34.90;99.90
20102;DHT22;10210;52.284;9.892;2023-08-20T09:09:44;35.00;99.90
20102;DHT22;10210;52.284;9.892;2023-08-20T09:12:15;35.00;99.90
20102;DHT22;10210;52.284;9.892;2023-08-20T09:14:51;35.10;99.90
20102;DHT22;10210;52.284;9.892;2023-08-20T09:17:18;35.10;99.90
20102;DHT22;10210;52.284;9.892;2023-08-20T09:19:45;35.20;99.90
20102;DHT22;10210;52.284;9.892;2023-08-20T09:22:15;35.20;99.90
20102;DHT22;10210;52.284;9.892;2023-08-20T09:24:52;35.20;99.90
20102;DHT22;10210;52.284;9.892;2023-08-20T09:27:22;35.30;99.90
20102;DHT22;10210;52.284;9.892;2023-08-20T09:29:55;35.30;99.90
20102;DHT22;10210;52.284;9.892;2023-08-20T09:32:25;35.40;99.90
20102;DHT22;10210;52.284;9.892;2023-08-20T09:34:54;35.40;99.90
20102;DHT22;10210;52.284;9.892;2023-08-20T09:37:22;35.30;99.90
20102;DHT22;10210;52.284;9.892;2023-08-20T09:39:49;35.30;99.90
20102;DHT22;10210;52.284;9.892;2023-08-20T09:42:16;35.20;99.90
20102;DHT22;10210;52.284;9.892;2023-08-20T09:44:44;35.20;99.90
20102;DHT22;10210;52.284;9.892;2023-08-20T09:47:12;35.10;99.90
20102;DHT22;10210;52.284;9.892;2023-08-20T09:49:40;35.10;99.90
20102;DHT22;10210;52.284;9.892;2023-08-20T09:52:11;35.10;99.90
20102;DHT22;10210;52.284;9.892;2023-08-20T09:55:00;35.00;99.90
20102;DHT22;10210;52.284;9.892;2023-08-20T09:57:35;35.00;99.90
20102;DHT22;10210;52.284;9.892;2023-08-20T10:00:04;34.90;99.90
20102;DHT22;10210;52.284;9.892;2023-08-20T10:02:32;34.90;99.90
20102;DHT22;10210;52.284;9.892;2023-08-20T10:04:59;34.90;99.90
20102;DHT22;10210;52.284;9.892;2023-08-20T10:07:29;34.90;99.90
20102;DHT22;10210;52.284;9.892;2023-08-20T10:09:59;34.90;99.90
20102;DHT22;10210;52.284;9.892;2023-08-20T10:12:27;34.90;99.90
20102;DHT22;10210;52.284;9.892;2023-08-20T10:14:54;34.90;99.90
20102;DHT22;10210;52.284;9.892;2023-08-20T10:17:23;34.90;99.90
20102;DHT22;10210;52.284;9.892;2023-08-20T10:19:53;35.00;99.90
20102;DHT22;10210;52.284;9.892;2023-08-20T10:22:20;35.00;99.90
20102;DHT22;10210;52.284;9.892;2023-08-20T10:24:52;35.10;99.90
20102;DHT22;10210;52.284;9.892;2023-08-20T10:27:30;35.10;99.90
20102;DHT22;10210;52.284;9.892;2023-08-20T10:29:59;35.00;99.90
20102;DHT22;10210;52.284;9.892;2023-08-20T10:32:51;35.00;99.90
20102;DHT22;10210;52.284;9.892;2023-08-20T10:35:22;34.90;99.90
20102;DHT22;10210;52.284;9.892;2023-08-20T10:38:18;34.80;99.90
20102;DHT22;10210;52.284;9.892;2023-08-20T10:40:54;34.80;99.90
20102;DHT22;10210;52.284;9.892;2023-08-20T10:43:29;34.70;99.90
20102;DHT22;10210;52.284;9.892;2023-08-20T10:46:18;34.60;99.90
20102;DHT22;10210;52.284;9.892;2023-08-20T10:48:51;34.50;99.90
20102;DHT22;10210;52.284;9.892;2023-08-20T10:51:24;34.40;99.90
20102;DHT22;10210;52.284;9.892;2023-08-20T10:56:38;34.30;99.90
20102;DHT22;10210;52.284;9.892;2023-08-20T10:59:21;34.30;99.90
20102;DHT22;10210;52.284;9.892;2023-08-20T11:01:52;34.20;99.90
20102;DHT22;10210;52.284;9.892;2023-08-20T11:04:22;34.20;99.90
20102;DHT22;10210;52.284;9.892;2023-08-20T11:06:56;34.10;99.90
20102;DHT22;10210;52.284;9.892;2023-08-20T11:09:24;34.00;99.90
20102;DHT22;10210;52.284;9.892;2023-08-20T11:11:51;34.00;99.90
20102;DHT22;10210;52.284;9.892;2023-08-20T11:14:19;34.00;99.90
20102;DHT22;10210;52.284;9.892;2023-08-20T11:16:46;34.00;99.90
20102;DHT22;10210;52.284;9.892;2023-08-20T11:19:14;34.00;99.90
20102;DHT22;10210;52.284;9.892;2023-08-20T11:21:44;33.90;99.90
20102;DHT22;10210;52.284;9.892;2023-08-20T11:24:10;33.90;99.90
20102;DHT22;10210;52.284;9.892;2023-08-20T11:26:39;33.90;99.90
20102;DHT22;10210;52.284;9.892;2023-08-20T11:29:14;33.90;99.90
20102;DHT22;10210;52.284;9.892;2023-08-20T11:31:46;33.90;99.90
20102;DHT22;10210;52.284;9.892;2023-08-20T11:34:12;33.80;99.90
20102;DHT22;10210;52.284;9.892;2023-08-20T11:36:41;33.70;99.90
20102;DHT22;10210;52.284;9.892;2023-08-20T11:39:07;33.70;99.90
20102;DHT22;10210;52.284;9.892;2023-08-20T11:41:37;33.70;99.90
20102;DHT22;10210;52.284;9.892;2023-08-20T11:44:04;33.70;99.90
20102;DHT22;10210;52.284;9.892;2023-08-20T11:46:30;33.70;99.90
20102;DHT22;10210;52.284;9.892;2023-08-20T11:49:04;33.70;99.90
20102;DHT22;10210;52.284;9.892;2023-08-20T11:54:18;33.90;99.90
20102;DHT22;10210;52.284;9.892;2023-08-20T11:56:51;33.90;99.90
20102;DHT22;10210;52.284;9.892;2023-08-20T11:59:20;34.00;99.90
20102;DHT22;10210;52.284;9.892;2023-08-20T12:01:56;34.00;99.90
20102;DHT22;10210;52.284;9.892;2023-08-20T12:04:27;34.10;99.90
20102;DHT22;10210;52.284;9.892;2023-08-20T12:07:05;34.20;99.90
20102;DHT22;10210;52.284;9.892;2023-08-20T12:09:33;34.30;99.90
20102;DHT22;10210;52.284;9.892;2023-08-20T12:11:59;34.30;99.90
20102;DHT22;10210;52.284;9.892;2023-08-20T12:14:25;34.40;99.90
20102;DHT22;10210;52.284;9.892;2023-08-20T12:16:51;34.40;99.90
20102;DHT22;10210;52.284;9.892;2023-08-20T12:19:19;34.40;99.90
20102;DHT22;10210;52.284;9.892;2023-08-20T12:21:45;34.50;99.90
20102;DHT22;10210;52.284;9.892;2023-08-20T12:24:11;34.50;99.90
20102;DHT22;10210;52.284;9.892;2023-08-20T12:26:38;34.60;99.90
20102;DHT22;10210;52.284;9.892;2023-08-20T12:29:05;34.60;99.90
20102;DHT22;10210;52.284;9.892;2023-08-20T12:31:34;34.60;99.90
20102;DHT22;10210;52.284;9.892;2023-08-20T12:34:00;34.70;99.90
20102;DHT22;10210;52.284;9.892;2023-08-20T12:36:28;34.70;99.90
20102;DHT22;10210;52.284;9.892;2023-08-20T12:38:55;34.70;99.90
20102;DHT22;10210;52.284;9.892;2023-08-20T12:41:21;34.80;99.90
20102;DHT22;10210;52.284;9.892;2023-08-20T12:43:47;34.80;99.90
20102;DHT22;10210;52.284;9.892;2023-08-20T12:46:13;34.80;99.90
20102;DHT22;10210;52.284;9.892;2023-08-20T12:48:39;34.80;99.90
20102;DHT22;10210;52.284;9.892;2023-08-20T12:51:05;34.80;99.90
20102;DHT22;10210;52.284;9.892;2023-08-20T12:53:32;34.90;99.90
20102;DHT22;10210;52.284;9.892;2023-08-20T12:55:58;34.90;99.90
20102;DHT22;10210;52.284;9.892;2023-08-20T12:58:23;34.90;99.90
20102;DHT22;10210;52.284;9.892;2023-08-20T13:00:50;35.00;99.90
20102;DHT22;10210;52.284;9.892;2023-08-20T13:03:17;35.00;99.90
20102;DHT22;10210;52.284;9.892;2023-08-20T13:05:44;35.00;99.90
20102;DHT22;10210;52.284;9.892;2023-08-20T13:08:10;35.00;99.90
20102;DHT22;10210;52.284;9.892;2023-08-20T13:10:42;35.00;99.90
20102;DHT22;10210;52.284;9.892;2023-08-20T13:13:16;34.90;99.90
20102;DHT22;10210;52.284;9.892;2023-08-20T13:15:46;34.90;99.90
20102;DHT22;10210;52.284;9.892;2023-08-20T13:18:12;34.90;99.90
20102;DHT22;10210;52.284;9.892;2023-08-20T13:20:39;35.00;99.90
20102;DHT22;10210;52.284;9.892;2023-08-20T13:23:05;35.00;99.90
20102;DHT22;10210;52.284;9.892;2023-08-20T13:25:31;35.00;99.90
20102;DHT22;10210;52.284;9.892;2023-08-20T13:27:56;35.10;99.90
20102;DHT22;10210;52.284;9.892;2023-08-20T13:30:22;35.10;99.90
20102;DHT22;10210;52.284;9.892;2023-08-20T13:32:49;35.20;99.90
20102;DHT22;10210;52.284;9.892;2023-08-20T13:35:14;35.20;99.90
20102;DHT22;10210;52.284;9.892;2023-08-20T13:37:40;35.30;99.90
20102;DHT22;10210;52.284;9.892;2023-08-20T13:40:06;35.30;99.90
20102;DHT22;10210;52.284;9.892;2023-08-20T13:42:34;35.40;99.90
20102;DHT22;10210;52.284;9.892;2023-08-20T13:45:00;35.40;99.90
20102;DHT22;10210;52.284;9.892;2023-08-20T13:47:26;35.40;99.90
20102;DHT22;10210;52.284;9.892;2023-08-20T13:49:52;35.40;99.90
20102;DHT22;10210;52.284;9.892;2023-08-20T13:52:17;35.40;99.90
20102;DHT22;10210;52.284;9.892;2023-08-20T13:54:43;35.40;99.90
20102;DHT22;10210;52.284;9.892;2023-08-20T13:57:09;35.40;99.90
20102;DHT22;10210;52.284;9.892;2023-08-20T13:59:35;35.40;99.90
20102;DHT22;10210;52.284;9.892;2023-08-20T14:02:01;35.40;99.90
20102;DHT22;10210;52.284;9.892;2023-08-20T14:04:28;35.40;99.90
20102;DHT22;10210;52.284;9.892;2023-08-20T14:06:53;35.40;99.90
20102;DHT22;10210;52.284;9.892;2023-08-20T14:09:19;35.40;99.90
20102;DHT22;10210;52.284;9.892;2023-08-20T14:11:45;35.40;99.90
20102;DHT22;10210;52.284;9.892;2023-08-20T14:14:11;35.50;99.90
20102;DHT22;10210;52.284;9.892;2023-08-20T14:16:37;35.40;99.90
20102;DHT22;10210;52.284;9.892;2023-08-20T14:19:03;35.50;99.90
20102;DHT22;10210;52.284;9.892;2023-08-20T14:21:29;35.60;99.90
20102;DHT22;10210;52.284;9.892;2023-08-20T14:23:55;35.50;99.90
20102;DHT22;10210;52.284;9.892;2023-08-20T14:26:20;35.50;99.90
20102;DHT22;10210;52.284;9.892;2023-08-20T14:28:46;35.50;99.90
20102;DHT22;10210;52.284;9.892;2023-08-20T14:31:12;35.50;99.90
20102;DHT22;10210;52.284;9.892;2023-08-20T14:33:39;35.50;99.90
20102;DHT22;10210;52.284;9.892;2023-08-20T14:36:05;35.50;99.90
20102;DHT22;10210;52.284;9.892;2023-08-20T14:38:31;35.50;99.90
20102;DHT22;10210;52.284;9.892;2023-08-20T14:41:00;35.60;99.90
20102;DHT22;10210;52.284;9.892;2023-08-20T14:43:27;35.70;99.90
20102;DHT22;10210;52.284;9.892;2023-08-20T14:45:53;35.70;99.90
20102;DHT22;10210;52.284;9.892;2023-08-20T14:48:20;35.70;99.90
20102;DHT22;10210;52.284;9.892;2023-08-20T14:50:45;35.80;99.90
20102;DHT22;10210;52.284;9.892;2023-08-20T14:53:11;35.80;99.90
20102;DHT22;10210;52.284;9.892;2023-08-20T14:55:37;35.90;99.40
20102;DHT22;10210;52.284;9.892;2023-08-20T14:58:03;35.90;99.40
20102;DHT22;10210;52.284;9.892;2023-08-20T15:00:32;35.90;99.30
20102;DHT22;10210;52.284;9.892;2023-08-20T15:02:58;35.80;99.60
20102;DHT22;10210;52.284;9.892;2023-08-20T15:05:23;35.90;99.20
20102;DHT22;10210;52.284;9.892;2023-08-20T15:07:49;35.80;99.10
20102;DHT22;10210;52.284;9.892;2023-08-20T15:10:15;35.80;99.50
20102;DHT22;10210;52.284;9.892;2023-08-20T15:12:41;35.80;99.10
20102;DHT22;10210;52.284;9.892;2023-08-20T15:15:07;35.70;98.80
20102;DHT22;10210;52.284;9.892;2023-08-20T15:17:36;35.70;99.00
20102;DHT22;10210;52.284;9.892;2023-08-20T15:20:03;35.60;98.50
20102;DHT22;10210;52.284;9.892;2023-08-20T15:22:36;35.50;98.60
20102;DHT22;10210;52.284;9.892;2023-08-20T15:25:03;35.40;98.60
20102;DHT22;10210;52.284;9.892;2023-08-20T15:27:32;35.30;98.90
20102;DHT22;10210;52.284;9.892;2023-08-20T15:30:00;35.20;99.10
20102;DHT22;10210;52.284;9.892;2023-08-20T15:32:25;35.20;99.10
20102;DHT22;10210;52.284;9.892;2023-08-20T15:34:53;35.20;99.20
20102;DHT22;10210;52.284;9.892;2023-08-20T15:37:19;35.20;99.30
20102;DHT22;10210;52.284;9.892;2023-08-20T15:39:45;35.10;98.80
20102;DHT22;10210;52.284;9.892;2023-08-20T15:42:11;35.10;98.80
20102;DHT22;10210;52.284;9.892;2023-08-20T15:44:39;35.10;98.70